Leck Kill, Pennsylvania
Current Conditions -  °F | °C
As of 2:53 AM on Sunday 26 Oct 2014 (Local Time) from KSEG Reporting Station
Clear Clear  
Wind Chill: 60°   Ceiling: Unl
Heat Index: 60°   Visibility: 10mi
Dew Point: 38°   Wind: 14mph
Humidity: 44%   Direction: 290°WNW
Pressure: 29.65"   Gusts: 22mph
Location:  40.72°N, 76.63°W
Report Text: KSEG 260653Z AUTO 29012G19KT 10SM CLR 16/03 A2965 RMK AO2 SLP039 T01560033
Loading
Personal Weather Stations






























Interactive Weather Map New forecast layout! Learn more

10-Day Weather Forecast

Advertisements
Track Severe Weather on mobile